createdAt,value
2018-02-23T00:00:04.866Z,0
2018-02-23T00:01:14.318Z,0
2018-02-23T00:02:24.049Z,0
2018-02-23T00:03:33.263Z,0
2018-02-23T00:04:42.456Z,0
2018-02-23T00:05:52.497Z,0
2018-02-23T00:07:02.538Z,0
2018-02-23T00:08:12.013Z,0
2018-02-23T00:09:21.597Z,0
2018-02-23T00:10:31.608Z,0
2018-02-23T00:11:42.562Z,0
2018-02-23T00:12:52.715Z,0
2018-02-23T00:14:02.234Z,0
2018-02-23T00:15:12.073Z,0
2018-02-23T00:16:21.851Z,0
2018-02-23T00:17:31.432Z,0
2018-02-23T00:18:41.164Z,0
2018-02-23T00:19:50.624Z,0
2018-02-23T00:21:00.351Z,0
2018-02-23T00:22:10.076Z,0
2018-02-23T00:23:19.335Z,0
2018-02-23T00:24:29.393Z,0
2018-02-23T00:25:39.269Z,0
2018-02-23T00:26:48.984Z,0
2018-02-23T00:27:58.975Z,0
2018-02-23T00:29:08.565Z,0
2018-02-23T00:30:18.300Z,0
2018-02-23T00:31:27.804Z,0
2018-02-23T00:32:37.438Z,0
2018-02-23T00:33:46.884Z,0
2018-02-23T00:34:56.943Z,0
2018-02-23T00:36:06.536Z,0
2018-02-23T00:37:16.451Z,0
2018-02-23T00:38:26.216Z,0
2018-02-23T00:39:36.406Z,0
2018-02-23T00:40:47.036Z,0
2018-02-23T00:41:56.724Z,0
2018-02-23T00:43:06.226Z,0
2018-02-23T00:44:15.959Z,0
2018-02-23T00:45:25.683Z,0
2018-02-23T00:46:35.672Z,0
2018-02-23T00:47:45.927Z,0
2018-02-23T00:48:55.993Z,0
2018-02-23T00:50:04.910Z,0
2018-02-23T00:51:14.694Z,0
2018-02-23T00:52:24.177Z,0
2018-02-23T00:53:33.907Z,0
2018-02-23T00:54:43.087Z,0
2018-02-23T00:55:52.537Z,0
2018-02-23T00:57:02.259Z,0
2018-02-23T00:58:11.739Z,0
2018-02-23T00:59:21.005Z,0
2018-02-23T01:00:30.984Z,0
2018-02-23T01:01:40.991Z,0
2018-02-23T01:02:50.444Z,0
2018-02-23T01:03:59.897Z,0
2018-02-23T01:05:09.470Z,0
2018-02-23T01:06:19.192Z,0
2018-02-23T01:07:28.639Z,0
2018-02-23T01:08:38.708Z,0
2018-02-23T01:09:48.709Z,0
2018-02-23T01:10:58.426Z,0
2018-02-23T01:12:07.887Z,0
2018-02-23T01:13:17.614Z,0
2018-02-23T01:14:27.071Z,0
2018-02-23T01:15:37.061Z,0
2018-02-23T01:16:46.569Z,0
2018-02-23T01:17:56.297Z,0
2018-02-23T01:19:06.072Z,0
2018-02-23T01:20:15.553Z,0
2018-02-23T01:21:25.005Z,0
2018-02-23T01:22:34.717Z,0
2018-02-23T01:23:44.170Z,0
2018-02-23T01:24:53.617Z,0
2018-02-23T01:26:02.538Z,0
2018-02-23T01:27:12.001Z,0
2018-02-23T01:28:21.981Z,0
2018-02-23T01:29:31.437Z,0
2018-02-23T01:30:41.165Z,0
2018-02-23T01:31:51.151Z,0
2018-02-23T01:33:01.135Z,0
2018-02-23T01:34:11.113Z,0
2018-02-23T01:35:20.829Z,0
2018-02-23T01:36:30.672Z,0
2018-02-23T01:37:40.388Z,0
2018-02-23T01:38:49.846Z,0
2018-02-23T01:39:59.840Z,0
2018-02-23T01:41:09.294Z,0
2018-02-23T01:42:18.746Z,0
2018-02-23T01:43:27.930Z,0
2018-02-23T01:44:37.700Z,0
2018-02-23T01:45:47.693Z,0
2018-02-23T01:46:57.436Z,0
2018-02-23T01:48:06.897Z,0
2018-02-23T01:49:16.617Z,0
2018-02-23T01:50:26.063Z,0
2018-02-23T01:51:36.043Z,0
2018-02-23T01:52:46.029Z,0
2018-02-23T01:53:55.743Z,0
2018-02-23T01:55:05.190Z,0
2018-02-23T01:56:14.929Z,0
2018-02-23T01:57:24.412Z,0
2018-02-23T01:58:34.398Z,0
2018-02-23T01:59:44.114Z,0
2018-02-23T02:00:54.091Z,0
2018-02-23T02:02:03.886Z,0
2018-02-23T02:03:13.088Z,0
2018-02-23T02:04:23.068Z,0
2018-02-23T02:05:32.794Z,0
2018-02-23T02:06:42.518Z,0
2018-02-23T02:07:51.994Z,0
2018-02-23T02:09:01.987Z,0
2018-02-23T02:10:11.705Z,0
2018-02-23T02:11:21.685Z,0
2018-02-23T02:12:31.418Z,0
2018-02-23T02:13:41.129Z,0
2018-02-23T02:14:50.579Z,0
2018-02-23T02:16:00.296Z,0
2018-02-23T02:17:09.754Z,0
2018-02-23T02:18:19.489Z,0
2018-02-23T02:19:29.472Z,0
2018-02-23T02:20:39.196Z,0
2018-02-23T02:21:49.187Z,0
2018-02-23T02:22:59.164Z,0
2018-02-23T02:24:09.146Z,0
2018-02-23T02:25:19.127Z,0
2018-02-23T02:26:29.142Z,0
2018-02-23T02:27:38.870Z,0
2018-02-23T02:28:48.330Z,0
2018-02-23T02:29:57.786Z,0
2018-02-23T02:31:07.503Z,0
2018-02-23T02:32:17.220Z,0
2018-02-23T02:33:26.947Z,0
2018-02-23T02:34:36.666Z,0
2018-02-23T02:35:46.408Z,0
2018-02-23T02:36:56.409Z,0
2018-02-23T02:38:06.433Z,0
2018-02-23T02:39:15.354Z,0
2018-02-23T02:40:25.077Z,0
2018-02-23T02:41:35.067Z,0
2018-02-23T02:42:44.803Z,0
2018-02-23T02:43:54.260Z,0
2018-02-23T02:45:04.258Z,0
2018-02-23T02:46:14.043Z,0
2018-02-23T02:47:24.087Z,0
2018-02-23T02:48:33.903Z,0
2018-02-23T02:49:43.653Z,0
2018-02-23T02:50:53.647Z,0
2018-02-23T02:52:02.833Z,0
2018-02-23T02:53:12.571Z,0
2018-02-23T02:54:22.312Z,0
2018-02-23T02:55:32.061Z,0
2018-02-23T02:56:41.783Z,0
2018-02-23T02:57:51.771Z,0
2018-02-23T02:59:01.546Z,0
2018-02-23T03:00:11.274Z,0
2018-02-23T03:01:21.013Z,0
2018-02-23T03:02:31.058Z,0
2018-02-23T03:03:41.066Z,0
2018-02-23T03:04:50.537Z,0
2018-02-23T03:06:00.272Z,0
2018-02-23T03:07:09.994Z,0
2018-02-23T03:08:19.720Z,0
2018-02-23T03:09:29.173Z,0
2018-02-23T03:10:39.155Z,0
2018-02-23T03:11:49.201Z,0
2018-02-23T03:12:58.522Z,0
2018-02-23T03:14:08.240Z,0
2018-02-23T03:15:18.051Z,0
2018-02-23T03:16:27.809Z,0
2018-02-23T03:17:37.806Z,0
2018-02-23T03:18:47.548Z,0
2018-02-23T03:19:57.276Z,0
2018-02-23T03:21:07.295Z,0
2018-02-23T03:22:17.028Z,0
2018-02-23T03:23:26.755Z,0
2018-02-23T03:24:36.771Z,0
2018-02-23T03:25:46.497Z,0
2018-02-23T03:26:56.610Z,0
2018-02-23T03:28:06.640Z,0
2018-02-23T03:29:16.367Z,0
2018-02-23T03:30:25.871Z,0
2018-02-23T03:31:35.626Z,0
2018-02-23T03:32:45.628Z,0
2018-02-23T03:33:55.352Z,0
2018-02-23T03:35:05.073Z,0
2018-02-23T03:36:14.555Z,0
2018-02-23T03:37:24.282Z,0
2018-02-23T03:38:33.476Z,0
2018-02-23T03:39:43.207Z,0
2018-02-23T03:40:52.946Z,0
2018-02-23T03:42:02.675Z,0
2018-02-23T03:43:12.663Z,0
2018-02-23T03:44:22.381Z,0
2018-02-23T03:45:32.103Z,0
2018-02-23T03:46:41.568Z,0
2018-02-23T03:47:51.571Z,0
2018-02-23T03:49:01.565Z,0
2018-02-23T03:50:11.548Z,0
2018-02-23T03:51:21.536Z,0
2018-02-23T03:52:31.255Z,0
2018-02-23T03:53:40.442Z,0
2018-02-23T03:54:49.898Z,0
2018-02-23T03:55:59.350Z,0
2018-02-23T03:57:09.354Z,0
2018-02-23T03:58:19.066Z,0
2018-02-23T03:59:28.518Z,0
2018-02-23T04:00:38.499Z,0
2018-02-23T04:01:48.221Z,0
2018-02-23T04:02:58.216Z,0
2018-02-23T04:04:07.937Z,0
2018-02-23T04:05:17.978Z,0
2018-02-23T04:06:27.828Z,0
2018-02-23T04:07:37.278Z,0
2018-02-23T04:08:46.480Z,0
2018-02-23T04:09:56.470Z,0
2018-02-23T04:11:05.950Z,0
2018-02-23T04:12:15.677Z,0
2018-02-23T04:13:25.169Z,0
2018-02-23T04:14:34.903Z,0
2018-02-23T04:15:44.645Z,0
2018-02-23T04:16:53.830Z,0
2018-02-23T04:18:03.552Z,0
2018-02-23T04:19:13.003Z,0
2018-02-23T04:20:22.985Z,0
2018-02-23T04:21:32.733Z,0
2018-02-23T04:22:42.435Z,0
2018-02-23T04:23:52.419Z,4
2018-02-23T04:25:02.138Z,4
2018-02-23T04:26:11.637Z,4
2018-02-23T04:27:21.616Z,4
2018-02-23T04:28:31.346Z,4
2018-02-23T04:29:40.819Z,4
2018-02-23T04:30:50.826Z,4
2018-02-23T04:32:00.040Z,4
2018-02-23T04:33:10.049Z,4
2018-02-23T04:34:19.782Z,4
2018-02-23T04:35:29.506Z,4
2018-02-23T04:36:39.514Z,4
2018-02-23T04:37:48.974Z,4
2018-02-23T04:38:58.970Z,4
2018-02-23T04:40:08.427Z,4
2018-02-23T04:41:18.194Z,4
2018-02-23T04:42:27.654Z,4
2018-02-23T04:43:37.648Z,4
2018-02-23T04:44:47.388Z,4
2018-02-23T04:45:57.133Z,4
2018-02-23T04:47:07.124Z,4
2018-02-23T04:48:16.578Z,4
2018-02-23T04:49:26.306Z,4
2018-02-23T04:50:36.050Z,4
2018-02-23T04:51:46.044Z,4
2018-02-23T04:52:55.816Z,4
2018-02-23T04:54:05.293Z,4
2018-02-23T04:55:15.102Z,4
2018-02-23T04:56:25.088Z,4
2018-02-23T04:57:34.279Z,4
2018-02-23T04:58:43.798Z,4
2018-02-23T04:59:53.536Z,4
2018-02-23T05:01:03.301Z,4
2018-02-23T05:02:12.528Z,4
2018-02-23T05:03:22.651Z,4
2018-02-23T05:04:32.387Z,4
2018-02-23T05:05:42.133Z,4
2018-02-23T05:06:52.155Z,4
2018-02-23T05:08:02.168Z,4
2018-02-23T05:09:11.633Z,4
2018-02-23T05:10:21.361Z,4
2018-02-23T05:11:31.108Z,4
2018-02-23T05:12:40.830Z,4
2018-02-23T05:13:50.323Z,4
2018-02-23T05:14:59.507Z,4
2018-02-23T05:16:09.252Z,4
2018-02-23T05:17:19.246Z,4
2018-02-23T05:18:28.704Z,4
2018-02-23T05:19:38.500Z,4
2018-02-23T05:20:48.218Z,4
2018-02-23T05:21:58.217Z,4
2018-02-23T05:23:07.945Z,4
2018-02-23T05:24:17.449Z,4
2018-02-23T05:25:27.194Z,4
2018-02-23T05:26:36.983Z,4
2018-02-23T05:27:46.999Z,4
2018-02-23T05:28:56.997Z,4
2018-02-23T05:30:06.725Z,4
2018-02-23T05:31:16.220Z,4
2018-02-23T05:32:25.678Z,4
2018-02-23T05:33:35.864Z,4
2018-02-23T05:34:45.463Z,4
2018-02-23T05:35:55.198Z,4
2018-02-23T05:37:04.916Z,4
2018-02-23T05:38:14.686Z,4
2018-02-23T05:39:24.671Z,4
2018-02-23T05:40:33.860Z,4
2018-02-23T05:41:43.607Z,4
2018-02-23T05:42:53.086Z,4
2018-02-23T05:44:02.569Z,4
2018-02-23T05:45:11.896Z,4
2018-02-23T05:46:21.404Z,4
2018-02-23T05:47:30.596Z,4
2018-02-23T05:48:40.307Z,4
2018-02-23T05:49:49.532Z,4
2018-02-23T05:50:59.276Z,4
2018-02-23T05:52:09.305Z,4
2018-02-23T05:53:19.086Z,4
2018-02-23T05:54:28.836Z,4
2018-02-23T05:55:38.023Z,4
2018-02-23T05:56:47.538Z,4
2018-02-23T05:57:57.280Z,0
2018-02-23T05:59:07.314Z,0
2018-02-23T06:00:17.300Z,4
2018-02-23T06:01:26.765Z,4
2018-02-23T06:02:36.756Z,4
2018-02-23T06:03:45.944Z,4
2018-02-23T06:04:55.716Z,4
2018-02-23T06:06:04.916Z,8
2018-02-23T06:07:14.640Z,4
2018-02-23T06:08:24.422Z,8
2018-02-23T06:09:34.222Z,8
2018-02-23T06:10:43.942Z,12
2018-02-23T06:11:54.291Z,8
2018-02-23T06:13:03.481Z,12
2018-02-23T06:14:13.058Z,12
2018-02-23T06:15:22.524Z,16
2018-02-23T06:16:32.285Z,20
2018-02-23T06:17:41.999Z,20
2018-02-23T06:18:51.180Z,24
2018-02-23T06:20:00.405Z,28
2018-02-23T06:21:09.997Z,36
2018-02-23T06:22:20.020Z,44
2018-02-23T06:23:29.809Z,52
2018-02-23T06:24:39.533Z,56
2018-02-23T06:25:48.481Z,64
2018-02-23T06:26:58.217Z,76
2018-02-23T06:28:07.942Z,88
2018-02-23T06:29:17.937Z,100
2018-02-23T06:30:27.665Z,112
2018-02-23T06:31:37.406Z,128
2018-02-23T06:32:46.332Z,140
2018-02-23T06:33:56.362Z,160
2018-02-23T06:35:05.814Z,176
2018-02-23T06:36:15.576Z,196
2018-02-23T06:37:25.331Z,212
2018-02-23T06:38:35.464Z,232
2018-02-23T06:39:45.449Z,252
2018-02-23T06:40:55.256Z,276
2018-02-23T06:42:05.268Z,296
2018-02-23T06:43:15.264Z,320
2018-02-23T06:44:25.022Z,340
2018-02-23T06:45:34.824Z,364
2018-02-23T06:46:44.309Z,392
2018-02-23T06:47:53.764Z,416
2018-02-23T06:49:03.776Z,440
2018-02-23T06:50:13.767Z,468
2018-02-23T06:51:23.487Z,492
2018-02-23T06:52:33.515Z,516
2018-02-23T06:53:42.976Z,544
2018-02-23T06:54:52.464Z,572
2018-02-23T06:56:01.816Z,600
2018-02-23T06:57:11.009Z,620
2018-02-23T06:58:20.725Z,644
2018-02-23T06:59:30.468Z,668
2018-02-23T07:00:40.036Z,696
2018-02-23T07:01:49.483Z,720
2018-02-23T07:02:58.663Z,740
2018-02-23T07:04:08.426Z,768
2018-02-23T07:05:18.516Z,792
2018-02-23T07:06:28.517Z,816
2018-02-23T07:07:38.085Z,832
2018-02-23T07:08:47.096Z,856
2018-02-23T07:09:56.821Z,884
2018-02-23T07:11:06.379Z,904
2018-02-23T07:12:16.062Z,928
2018-02-23T07:13:25.344Z,948
2018-02-23T07:14:35.174Z,972
2018-02-23T07:15:44.473Z,992
2018-02-23T07:16:53.700Z,1012
2018-02-23T07:18:03.051Z,1028
2018-02-23T07:19:12.539Z,1052
2018-02-23T07:20:22.355Z,1068
2018-02-23T07:21:31.679Z,1092
2018-02-23T07:22:41.039Z,1112
2018-02-23T07:23:50.536Z,1132
2018-02-23T07:24:59.930Z,1148
2018-02-23T07:26:09.819Z,1172
2018-02-23T07:27:19.058Z,1188
2018-02-23T07:28:28.617Z,1208
2018-02-23T07:29:37.857Z,1220
2018-02-23T07:30:47.397Z,1236
2018-02-23T07:31:56.974Z,1256
2018-02-23T07:33:06.488Z,1272
2018-02-23T07:34:16.562Z,1288
2018-02-23T07:35:26.065Z,1304
2018-02-23T07:36:35.865Z,1316
2018-02-23T07:37:45.331Z,1332
2018-02-23T07:38:54.872Z,1344
2018-02-23T07:40:03.533Z,1364
2018-02-23T07:41:13.275Z,1372
2018-02-23T07:42:22.839Z,1388
2018-02-23T07:43:32.738Z,1400
2018-02-23T07:44:42.452Z,1412
2018-02-23T07:45:52.199Z,1424
2018-02-23T07:47:01.948Z,1436
2018-02-23T07:48:10.632Z,1448
2018-02-23T07:49:20.765Z,1460
2018-02-23T07:50:30.547Z,1472
2018-02-23T07:51:39.774Z,1488
2018-02-23T07:52:48.991Z,1508
2018-02-23T07:53:58.179Z,1520
2018-02-23T07:55:07.931Z,1540
2018-02-23T07:56:17.812Z,1560
2018-02-23T07:57:27.856Z,1576
2018-02-23T07:58:37.356Z,1584
2018-02-23T07:59:47.164Z,1596
2018-02-23T08:00:56.917Z,1604
2018-02-23T08:02:06.956Z,1612
2018-02-23T08:03:17.109Z,1624
2018-02-23T08:04:26.851Z,1636
2018-02-23T08:05:36.076Z,1644
2018-02-23T08:06:45.028Z,1652
2018-02-23T08:07:54.904Z,1664
2018-02-23T08:09:04.407Z,1672
2018-02-23T08:10:14.322Z,1680
2018-02-23T08:11:23.988Z,1688
2018-02-23T08:12:33.451Z,1700
2018-02-23T08:13:43.174Z,1704
2018-02-23T08:14:52.907Z,1716
2018-02-23T08:16:02.415Z,1728
2018-02-23T08:17:11.869Z,1732
2018-02-23T08:18:21.592Z,1744
2018-02-23T08:19:31.312Z,1752
2018-02-23T08:20:40.506Z,1760
2018-02-23T08:21:50.603Z,1768
2018-02-23T08:22:59.834Z,1776
2018-02-23T08:24:09.341Z,1788
2018-02-23T08:25:18.803Z,1792
2018-02-23T08:26:27.998Z,1800
2018-02-23T08:27:38.241Z,1756
2018-02-23T08:28:47.834Z,1768
2018-02-23T08:29:57.347Z,1768
2018-02-23T08:31:06.804Z,1780
2018-02-23T08:32:16.275Z,1784
2018-02-23T08:33:25.732Z,1788
2018-02-23T08:34:35.578Z,1800
2018-02-23T08:35:44.768Z,1804
2018-02-23T08:36:54.008Z,1816
2018-02-23T08:38:02.933Z,1820
2018-02-23T08:39:12.390Z,1824
2018-02-23T08:40:21.580Z,1832
2018-02-23T08:41:31.326Z,1836
2018-02-23T08:42:40.527Z,1844
2018-02-23T08:43:50.646Z,1848
2018-02-23T08:45:00.156Z,1852
2018-02-23T08:46:09.571Z,1864
2018-02-23T08:47:18.700Z,1868
2018-02-23T08:48:28.357Z,1872
2018-02-23T08:49:38.166Z,1876
2018-02-23T08:50:47.771Z,1884
2018-02-23T08:51:57.302Z,1888
2018-02-23T08:53:06.760Z,1896
2018-02-23T08:54:15.980Z,1896
2018-02-23T08:55:25.701Z,1904
2018-02-23T08:56:35.170Z,1908
2018-02-23T08:57:45.215Z,1916
2018-02-23T08:58:54.174Z,1920
2018-02-23T09:00:03.887Z,1924
2018-02-23T09:01:13.701Z,1936
2018-02-23T09:02:23.358Z,1936
2018-02-23T09:03:33.141Z,1944
2018-02-23T09:04:42.664Z,1952
2018-02-23T09:05:52.211Z,1960
2018-02-23T09:07:02.424Z,1964
2018-02-23T09:08:12.226Z,1972
2018-02-23T09:09:21.528Z,1976
2018-02-23T09:10:31.355Z,1984
2018-02-23T09:11:41.033Z,1988
2018-02-23T09:12:51.011Z,1996
2018-02-23T09:14:00.740Z,2004
2018-02-23T09:15:10.301Z,2012
2018-02-23T09:16:20.093Z,2020
2018-02-23T09:17:29.159Z,2024
2018-02-23T09:18:38.695Z,2028
2018-02-23T09:19:48.078Z,2040
2018-02-23T09:20:57.876Z,2052
2018-02-23T09:22:08.066Z,2068
2018-02-23T09:23:18.180Z,2088
2018-02-23T09:24:28.758Z,2108
2018-02-23T09:25:38.221Z,2140
2018-02-23T09:26:47.964Z,2176
2018-02-23T09:27:57.808Z,2208
2018-02-23T09:29:07.941Z,2232
2018-02-23T09:30:17.129Z,2248
2018-02-23T09:31:26.784Z,2260
2018-02-23T09:32:36.250Z,2248
2018-02-23T09:33:45.979Z,2244
2018-02-23T09:34:55.737Z,2252
2018-02-23T09:36:05.732Z,2272
2018-02-23T09:37:15.452Z,2276
2018-02-23T09:38:25.181Z,2272
2018-02-23T09:39:35.186Z,2288
2018-02-23T09:40:44.647Z,2300
2018-02-23T09:41:54.641Z,2312
2018-02-23T09:43:04.375Z,2312
2018-02-23T09:44:13.896Z,2292
2018-02-23T09:45:23.351Z,2272
2018-02-23T09:46:32.902Z,2248
2018-02-23T09:47:42.538Z,2232
2018-02-23T09:48:51.558Z,2224
2018-02-23T09:50:01.072Z,2244
2018-02-23T09:51:10.536Z,2288
2018-02-23T09:52:19.732Z,2336
2018-02-23T09:53:29.743Z,2380
2018-02-23T09:54:38.932Z,2412
2018-02-23T09:55:48.120Z,2424
2018-02-23T09:56:57.845Z,2432
2018-02-23T09:58:06.769Z,2456
2018-02-23T09:59:16.498Z,2456
2018-02-23T10:00:26.493Z,2472
2018-02-23T10:01:36.317Z,2484
2018-02-23T10:02:45.800Z,2488
2018-02-23T10:03:55.549Z,2496
2018-02-23T10:05:04.669Z,2508
2018-02-23T10:06:13.682Z,2508
2018-02-23T10:07:23.676Z,2524
2018-02-23T10:08:33.451Z,2528
2018-02-23T10:09:42.949Z,2544
2018-02-23T10:10:52.510Z,2540
2018-02-23T10:12:02.082Z,2568
2018-02-23T10:13:11.004Z,2576
2018-02-23T10:14:20.539Z,2580
2018-02-23T10:15:30.022Z,2592
2018-02-23T10:16:40.029Z,2596
2018-02-23T10:17:49.576Z,2612
2018-02-23T10:18:59.517Z,2616
2018-02-23T10:20:08.444Z,2632
2018-02-23T10:21:18.083Z,2636
2018-02-23T10:22:27.317Z,2644
2018-02-23T10:23:37.638Z,2656
2018-02-23T10:24:46.838Z,2664
2018-02-23T10:25:56.624Z,2672
2018-02-23T10:27:05.963Z,2688
2018-02-23T10:28:15.698Z,2692
2018-02-23T10:29:25.428Z,2712
2018-02-23T10:30:35.191Z,2712
2018-02-23T10:31:44.858Z,2736
2018-02-23T10:32:54.361Z,2748
2018-02-23T10:34:03.880Z,2752
2018-02-23T10:35:13.617Z,2768
2018-02-23T10:36:23.337Z,2772
2018-02-23T10:37:33.122Z,2788
2018-02-23T10:38:42.616Z,2788
2018-02-23T10:39:52.444Z,2804
2018-02-23T10:41:01.909Z,2812
2018-02-23T10:42:11.913Z,2828
2018-02-23T10:43:21.365Z,2836
2018-02-23T10:44:31.084Z,2852
2018-02-23T10:45:40.836Z,2864
2018-02-23T10:46:51.165Z,2880
2018-02-23T10:48:00.623Z,2924
2018-02-23T10:49:10.352Z,2956
2018-02-23T10:50:19.548Z,2964
2018-02-23T10:51:29.057Z,2980
2018-02-23T10:52:38.529Z,2992
2018-02-23T10:53:47.989Z,3000
2018-02-23T10:54:56.920Z,3020
2018-02-23T10:56:06.739Z,3044
2018-02-23T10:57:15.996Z,3040
2018-02-23T10:58:25.990Z,3056
2018-02-23T10:59:35.755Z,3064
2018-02-23T11:00:45.426Z,3088
2018-02-23T11:01:55.199Z,3100
2018-02-23T11:03:04.695Z,3136
2018-02-23T11:04:14.695Z,3176
2018-02-23T11:05:24.428Z,3200
2018-02-23T11:06:34.495Z,3192
2018-02-23T11:07:43.779Z,3212
2018-02-23T11:08:53.286Z,3216
2018-02-23T11:10:03.093Z,3236
2018-02-23T11:11:12.358Z,3248
2018-02-23T11:12:21.543Z,3268
2018-02-23T11:13:31.382Z,3280
2018-02-23T11:14:40.861Z,3300
2018-02-23T11:15:50.415Z,3348
2018-02-23T11:17:00.406Z,3348
2018-02-23T11:18:10.218Z,3364
2018-02-23T11:19:20.275Z,3352
2018-02-23T11:20:30.326Z,3380
2018-02-23T11:21:40.346Z,3380
2018-02-23T11:22:50.214Z,3396
2018-02-23T11:23:59.956Z,3396
2018-02-23T11:25:09.416Z,3400
2018-02-23T11:26:18.651Z,3408
2018-02-23T11:27:28.405Z,3412
2018-02-23T11:28:38.078Z,3408
2018-02-23T11:29:47.559Z,3420
2018-02-23T11:30:57.282Z,3420
2018-02-23T11:32:06.737Z,3432
2018-02-23T11:33:16.508Z,3440
2018-02-23T11:34:26.564Z,3448
2018-02-23T11:35:36.328Z,3472
2018-02-23T11:36:46.052Z,3468
2018-02-23T11:37:55.804Z,3476
2018-02-23T11:39:05.293Z,3464
2018-02-23T11:40:14.563Z,3472
2018-02-23T11:41:23.768Z,3476
2018-02-23T11:42:33.529Z,3480
2018-02-23T11:43:43.637Z,3492
2018-02-23T11:44:53.453Z,3480
2018-02-23T11:46:03.220Z,3496
2018-02-23T11:47:13.390Z,3500
2018-02-23T11:48:23.129Z,3500
2018-02-23T11:49:32.918Z,3500
2018-02-23T11:50:42.653Z,3500
2018-02-23T11:51:51.929Z,3484
2018-02-23T11:53:01.680Z,3464
2018-02-23T11:54:11.456Z,3456
2018-02-23T11:55:20.917Z,3468
2018-02-23T11:56:30.373Z,3480
2018-02-23T11:57:40.197Z,3484
2018-02-23T11:58:49.418Z,3488
2018-02-23T11:59:58.888Z,3500
2018-02-23T12:01:07.813Z,3516
2018-02-23T12:02:17.800Z,3516
2018-02-23T12:03:27.579Z,3528
2018-02-23T12:04:37.105Z,3524
2018-02-23T12:05:47.147Z,3524
2018-02-23T12:06:56.974Z,3496
2018-02-23T12:08:06.384Z,3508
2018-02-23T12:09:16.409Z,3496
2018-02-23T12:10:25.916Z,3500
2018-02-23T12:11:35.643Z,3516
2018-02-23T12:12:45.114Z,3516
2018-02-23T12:13:55.114Z,3532
2018-02-23T12:15:04.073Z,3524
2018-02-23T12:16:14.018Z,3524
2018-02-23T12:17:23.764Z,3528
2018-02-23T12:18:32.790Z,3532
2018-02-23T12:19:42.018Z,3524
2018-02-23T12:20:51.771Z,3504
2018-02-23T12:22:01.249Z,3516
2018-02-23T12:23:10.704Z,3516
2018-02-23T12:24:19.908Z,3528
2018-02-23T12:25:29.910Z,3552
2018-02-23T12:26:40.096Z,3596
2018-02-23T12:27:50.302Z,3628
2018-02-23T12:28:59.787Z,3620
2018-02-23T12:30:09.523Z,3644
2018-02-23T12:31:19.001Z,3688
2018-02-23T12:32:28.576Z,3684
2018-02-23T12:33:38.037Z,3712
2018-02-23T12:34:47.805Z,3752
2018-02-23T12:35:57.573Z,3788
2018-02-23T12:37:07.315Z,3812
2018-02-23T12:38:16.791Z,3836
2018-02-23T12:39:26.261Z,3864
2018-02-23T12:40:35.835Z,3884
2018-02-23T12:41:45.382Z,3892
2018-02-23T12:42:55.388Z,3920
2018-02-23T12:44:04.863Z,3896
2018-02-23T12:45:14.903Z,3940
2018-02-23T12:46:24.690Z,3944
2018-02-23T12:47:34.428Z,3960
2018-02-23T12:48:44.408Z,3972
2018-02-23T12:49:53.670Z,3996
2018-02-23T12:51:03.398Z,4008
2018-02-23T12:52:12.422Z,4052
2018-02-23T12:53:21.612Z,4080
2018-02-23T12:54:31.606Z,4088
2018-02-23T12:55:40.823Z,4096
2018-02-23T12:56:50.574Z,4088
2018-02-23T12:58:00.388Z,4092
2018-02-23T12:59:09.845Z,4088
2018-02-23T13:00:19.375Z,4116
2018-02-23T13:01:28.566Z,4100
2018-02-23T13:02:38.587Z,4096
2018-02-23T13:03:48.399Z,4108
2018-02-23T13:04:58.261Z,4132
2018-02-23T13:06:07.991Z,4120
2018-02-23T13:07:17.494Z,4128
2018-02-23T13:08:26.971Z,4140
2018-02-23T13:09:36.814Z,4156
2018-02-23T13:10:46.270Z,4152
2018-02-23T13:11:56.094Z,4160
2018-02-23T13:13:05.893Z,4172
2018-02-23T13:14:15.893Z,4188
2018-02-23T13:15:25.419Z,4188
2018-02-23T13:16:35.490Z,4204
2018-02-23T13:17:44.960Z,4208
2018-02-23T13:18:54.748Z,4236
2018-02-23T13:20:04.857Z,4232
2018-02-23T13:21:14.630Z,4224
2018-02-23T13:22:24.102Z,4252
2018-02-23T13:23:33.308Z,4260
2018-02-23T13:24:42.567Z,4276
2018-02-23T13:25:52.349Z,4256
2018-02-23T13:27:01.856Z,4288
2018-02-23T13:28:10.814Z,4272
2018-02-23T13:29:20.301Z,4288
2018-02-23T13:30:29.773Z,4260
2018-02-23T13:31:39.532Z,4280
2018-02-23T13:32:48.927Z,4284
2018-02-23T13:33:58.170Z,4284
2018-02-23T13:35:07.093Z,4312
2018-02-23T13:36:16.839Z,4320
2018-02-23T13:37:26.850Z,4332
2018-02-23T13:38:36.353Z,4328
2018-02-23T13:39:46.397Z,4304
2018-02-23T13:40:56.097Z,4276
2018-02-23T13:42:05.824Z,4276
2018-02-23T13:43:15.559Z,4292
2018-02-23T13:44:25.096Z,4308
2018-02-23T13:45:35.134Z,4320
2018-02-23T13:46:45.197Z,4308
2018-02-23T13:47:54.411Z,4340
2018-02-23T13:49:04.214Z,4360
2018-02-23T13:50:14.229Z,4292
2018-02-23T13:51:23.738Z,4396
2018-02-23T13:52:33.043Z,4360
2018-02-23T13:53:43.049Z,4340
2018-02-23T13:54:52.816Z,4352
2018-02-23T13:56:02.290Z,4372
2018-02-23T13:57:12.054Z,4360
2018-02-23T13:58:22.055Z,4376
2018-02-23T13:59:32.122Z,4408
2018-02-23T14:00:41.884Z,4396
2018-02-23T14:01:51.356Z,4404
2018-02-23T14:03:01.113Z,4384
2018-02-23T14:04:10.873Z,4400
2018-02-23T14:05:20.355Z,4396
2018-02-23T14:06:30.133Z,4420
2018-02-23T14:07:39.868Z,4460
2018-02-23T14:08:49.358Z,4480
2018-02-23T14:09:59.096Z,4480
2018-02-23T14:11:08.877Z,4504
2018-02-23T14:12:18.334Z,4480
2018-02-23T14:13:27.640Z,4480
2018-02-23T14:14:37.430Z,4472
2018-02-23T14:15:47.299Z,4484
2018-02-23T14:16:57.305Z,4476
2018-02-23T14:18:06.820Z,4464
2018-02-23T14:19:16.733Z,4476
2018-02-23T14:20:26.814Z,4476
2018-02-23T14:21:36.546Z,4492
2018-02-23T14:22:46.037Z,4516
2018-02-23T14:23:56.040Z,4512
2018-02-23T14:25:05.529Z,4508
2018-02-23T14:26:14.459Z,4500
2018-02-23T14:27:24.222Z,4516
2018-02-23T14:28:33.479Z,4464
2018-02-23T14:29:42.981Z,4520
2018-02-23T14:30:52.450Z,4508
2018-02-23T14:32:01.965Z,4496
2018-02-23T14:33:11.704Z,4480
2018-02-23T14:34:21.476Z,4448
2018-02-23T14:35:31.248Z,4456
2018-02-23T14:36:40.992Z,4436
2018-02-23T14:37:50.720Z,4460
2018-02-23T14:38:59.926Z,4428
2018-02-23T14:40:09.423Z,4392
2018-02-23T14:41:19.418Z,4380
2018-02-23T14:42:29.151Z,4360
2018-02-23T14:43:38.343Z,4320
2018-02-23T14:44:48.365Z,4292
2018-02-23T14:45:58.403Z,4276
2018-02-23T14:47:07.653Z,4236
2018-02-23T14:48:17.132Z,4236
2018-02-23T14:49:26.897Z,4240
2018-02-23T14:50:36.424Z,4204
2018-02-23T14:51:45.889Z,4192
2018-02-23T14:52:55.358Z,4144
2018-02-23T14:54:04.547Z,4136
2018-02-23T14:55:14.048Z,4120
2018-02-23T14:56:23.514Z,4108
2018-02-23T14:57:33.098Z,4096
2018-02-23T14:58:42.831Z,4040
2018-02-23T14:59:52.605Z,4032
2018-02-23T15:01:02.102Z,4024
2018-02-23T15:02:11.848Z,3996
2018-02-23T15:03:21.844Z,3976
2018-02-23T15:04:31.338Z,3944
2018-02-23T15:05:40.809Z,3916
2018-02-23T15:06:50.005Z,3892
2018-02-23T15:07:59.478Z,3868
2018-02-23T15:09:09.252Z,3856
2018-02-23T15:10:19.002Z,3840
2018-02-23T15:11:28.740Z,3800
2018-02-23T15:12:38.491Z,3792
2018-02-23T15:13:47.991Z,3812
2018-02-23T15:14:57.735Z,3816
2018-02-23T15:16:06.971Z,3788
2018-02-23T15:17:16.168Z,3748
2018-02-23T15:18:25.629Z,3684
2018-02-23T15:19:35.383Z,3660
2018-02-23T15:20:45.136Z,3632
2018-02-23T15:21:54.973Z,3596
2018-02-23T15:23:04.745Z,3576
2018-02-23T15:24:14.773Z,3548
2018-02-23T15:25:23.977Z,3512
2018-02-23T15:26:33.966Z,3476
2018-02-23T15:27:43.435Z,3440
2018-02-23T15:28:53.171Z,3424
2018-02-23T15:30:02.944Z,3396
2018-02-23T15:31:12.525Z,3364
2018-02-23T15:32:21.946Z,3344
2018-02-23T15:33:31.937Z,3312
2018-02-23T15:34:41.163Z,3288
2018-02-23T15:35:50.886Z,3276
2018-02-23T15:37:00.162Z,3244
2018-02-23T15:38:09.325Z,3244
2018-02-23T15:39:18.783Z,3204
2018-02-23T15:40:28.546Z,3160
2018-02-23T15:41:38.270Z,3108
2018-02-23T15:42:47.730Z,3092
2018-02-23T15:43:57.207Z,3068
2018-02-23T15:45:06.400Z,3024
2018-02-23T15:46:16.123Z,2984
2018-02-23T15:47:25.855Z,2952
2018-02-23T15:48:35.608Z,2900
2018-02-23T15:49:45.338Z,2864
2018-02-23T15:50:55.137Z,2820
2018-02-23T15:52:04.971Z,2772
2018-02-23T15:53:14.730Z,2748
2018-02-23T15:54:24.452Z,2704
2018-02-23T15:55:33.975Z,2644
2018-02-23T15:56:43.168Z,2580
2018-02-23T15:57:53.172Z,2508
2018-02-23T15:59:02.651Z,2456
2018-02-23T16:00:12.574Z,2396
2018-02-23T16:01:22.584Z,2352
2018-02-23T16:02:32.110Z,2304
2018-02-23T16:03:41.925Z,2256
2018-02-23T16:04:51.937Z,2212
2018-02-23T16:06:01.411Z,2164